Rankin, MI

5:17 PM EST on December 03, 2016 (GMT -0500)
Fenton and Cook Roads | | Change Station

Elev 856 ft 42.90 °N, 83.69 °W | Updated 53 days ago

Overcast
Overcast
65.0 °F
Feels Like 65.0 °F
N
0.0
Wind Variable Wind from SW
Gusts 0.0 mph

Today
High -- | Low -- °F
--% Chance of Precip.
Yesterday
High -- | Low -- °F
Precip. -- in
Pressure 30.32 in
Visibility 10.0 miles
Clouds Few 2200 ft
Few 2700 ft
Overcast 4000 ft
Dew Point 53 °F
Humidity 66%
Rainfall in
Snow Depth Not available.
7:48 AM 5:00 PM
Waxing Crescent, 17% visible
METAR KFNT 032153Z 27005KT 10SM FEW022 FEW027 OVC040 03/M01 A3030 RMK AO2 SLP268 T00281011
Pressure 30.32 in
Visibility 10.0 miles
Clouds Few 2200 ft
Few 2700 ft
Overcast 4000 ft
Dew Point 53 °F
Humidity 66%
Rainfall in
Snow Depth Not available.
7:48 AM 5:00 PM
Waxing Crescent, 17% visible
METAR KFNT 032153Z 27005KT 10SM FEW022 FEW027 OVC040 03/M01 A3030 RMK AO2 SLP268 T00281011

10-Day Weather Forecast

Almanac

Astronomy

Dec. 03, 2016 Rise Set
Actual Time
Civil Twilight
Nautical Twilight
Astronomical Twilight
Moon
Length of Visible Light
Length of Day
Tomorrow will be .
, % of the Moon is Illuminated

Today's Extremes

State Highs State Lows

Community

WunderPhotos

Upload Photos

1,955,525 photos uploaded!

WunderBlog® & News

Nearby

Air Quality

  Air Quality AQ Index Pollutant
Not available.

Snow Depth

Station Depth Elevation

Earthquake Activity

City Distance Mag. Time & Date
Minimum magnitude displayed is 2.5.

Coastal Water Temperatures

Place Temperature

Stations

Nearby Weather Stations

Station Location Temp. Windchill Dew Point Humidity Wind Precip. Elev Updated Type
                   

Watches & Warnings

There are currently no watches in effect.